sensor_id;sensor_type;location;lat;lon;timestamp;temperature;humidity
6421;DHT22;3243;50.958;7.012;2023-02-15T00:01:55;3.10;99.90
6421;DHT22;3243;50.958;7.012;2023-02-15T00:04:24;3.20;99.90
6421;DHT22;3243;50.958;7.012;2023-02-15T00:07:12;3.10;99.90
6421;DHT22;3243;50.958;7.012;2023-02-15T00:09:39;3.10;99.90
6421;DHT22;3243;50.958;7.012;2023-02-15T00:12:06;3.10;99.90
6421;DHT22;3243;50.958;7.012;2023-02-15T00:14:32;3.10;99.90
6421;DHT22;3243;50.958;7.012;2023-02-15T00:16:59;3.00;99.90
6421;DHT22;3243;50.958;7.012;2023-02-15T00:19:26;3.00;99.90
6421;DHT22;3243;50.958;7.012;2023-02-15T00:21:53;3.00;99.90
6421;DHT22;3243;50.958;7.012;2023-02-15T00:24:20;3.00;99.90
6421;DHT22;3243;50.958;7.012;2023-02-15T00:26:47;3.00;99.90
6421;DHT22;3243;50.958;7.012;2023-02-15T00:29:15;3.00;99.90
6421;DHT22;3243;50.958;7.012;2023-02-15T00:31:42;3.00;99.90
6421;DHT22;3243;50.958;7.012;2023-02-15T00:34:20;2.90;99.90
6421;DHT22;3243;50.958;7.012;2023-02-15T00:36:47;2.90;99.90
6421;DHT22;3243;50.958;7.012;2023-02-15T00:39:15;2.90;99.90
6421;DHT22;3243;50.958;7.012;2023-02-15T00:41:43;2.90;99.90
6421;DHT22;3243;50.958;7.012;2023-02-15T00:44:10;2.80;99.90
6421;DHT22;3243;50.958;7.012;2023-02-15T00:46:37;2.80;99.90
6421;DHT22;3243;50.958;7.012;2023-02-15T00:49:04;2.80;99.90
6421;DHT22;3243;50.958;7.012;2023-02-15T00:51:31;2.80;99.90
6421;DHT22;3243;50.958;7.012;2023-02-15T00:53:58;2.80;99.90
6421;DHT22;3243;50.958;7.012;2023-02-15T00:56:25;2.70;99.90
6421;DHT22;3243;50.958;7.012;2023-02-15T00:58:54;2.80;99.90
6421;DHT22;3243;50.958;7.012;2023-02-15T01:01:22;2.80;99.90
6421;DHT22;3243;50.958;7.012;2023-02-15T01:03:50;3.30;99.90
6421;DHT22;3243;50.958;7.012;2023-02-15T01:06:17;2.80;99.90
6421;DHT22;3243;50.958;7.012;2023-02-15T01:08:45;2.70;99.90
6421;DHT22;3243;50.958;7.012;2023-02-15T01:11:15;2.70;99.90
6421;DHT22;3243;50.958;7.012;2023-02-15T01:13:56;2.70;99.90
6421;DHT22;3243;50.958;7.012;2023-02-15T01:16:25;2.70;99.90
6421;DHT22;3243;50.958;7.012;2023-02-15T01:18:53;2.60;99.90
6421;DHT22;3243;50.958;7.012;2023-02-15T01:21:22;2.60;99.90
6421;DHT22;3243;50.958;7.012;2023-02-15T01:23:49;2.60;99.90
6421;DHT22;3243;50.958;7.012;2023-02-15T01:26:17;2.60;99.90
6421;DHT22;3243;50.958;7.012;2023-02-15T01:28:44;2.60;99.90
6421;DHT22;3243;50.958;7.012;2023-02-15T01:31:15;2.50;99.90
6421;DHT22;3243;50.958;7.012;2023-02-15T01:33:42;2.60;99.90
6421;DHT22;3243;50.958;7.012;2023-02-15T01:36:09;2.50;99.90
6421;DHT22;3243;50.958;7.012;2023-02-15T01:38:36;2.50;99.90
6421;DHT22;3243;50.958;7.012;2023-02-15T01:41:03;2.50;99.90
6421;DHT22;3243;50.958;7.012;2023-02-15T01:44:00;2.50;99.90
6421;DHT22;3243;50.958;7.012;2023-02-15T01:46:38;2.50;99.90
6421;DHT22;3243;50.958;7.012;2023-02-15T01:49:13;2.50;99.90
6421;DHT22;3243;50.958;7.012;2023-02-15T01:51:43;2.40;99.90
6421;DHT22;3243;50.958;7.012;2023-02-15T01:54:27;2.40;99.90
6421;DHT22;3243;50.958;7.012;2023-02-15T01:57:00;2.40;99.90
6421;DHT22;3243;50.958;7.012;2023-02-15T01:59:29;2.40;99.90
6421;DHT22;3243;50.958;7.012;2023-02-15T02:01:59;2.40;99.90
6421;DHT22;3243;50.958;7.012;2023-02-15T02:04:41;2.40;99.90
6421;DHT22;3243;50.958;7.012;2023-02-15T02:07:10;2.30;99.90
6421;DHT22;3243;50.958;7.012;2023-02-15T02:09:38;2.30;99.90
6421;DHT22;3243;50.958;7.012;2023-02-15T02:12:06;2.30;99.90
6421;DHT22;3243;50.958;7.012;2023-02-15T02:14:33;2.30;99.90
6421;DHT22;3243;50.958;7.012;2023-02-15T02:49:45;2.20;99.90
6421;DHT22;3243;50.958;7.012;2023-02-15T02:52:34;2.10;99.90
6421;DHT22;3243;50.958;7.012;2023-02-15T02:55:03;2.10;99.90
6421;DHT22;3243;50.958;7.012;2023-02-15T02:57:32;2.10;99.90
6421;DHT22;3243;50.958;7.012;2023-02-15T03:00:02;2.10;99.90
6421;DHT22;3243;50.958;7.012;2023-02-15T03:02:32;2.10;99.90
6421;DHT22;3243;50.958;7.012;2023-02-15T03:05:06;2.00;99.90
6421;DHT22;3243;50.958;7.012;2023-02-15T03:07:35;2.00;99.90
6421;DHT22;3243;50.958;7.012;2023-02-15T03:10:05;2.00;99.90
6421;DHT22;3243;50.958;7.012;2023-02-15T03:12:36;2.10;99.90
6421;DHT22;3243;50.958;7.012;2023-02-15T03:15:20;3.60;99.90
6421;DHT22;3243;50.958;7.012;2023-02-15T03:17:57;2.00;99.90
6421;DHT22;3243;50.958;7.012;2023-02-15T03:20:31;2.00;99.90
6421;DHT22;3243;50.958;7.012;2023-02-15T03:23:15;2.00;99.90
6421;DHT22;3243;50.958;7.012;2023-02-15T03:25:48;2.00;99.90
6421;DHT22;3243;50.958;7.012;2023-02-15T03:28:23;1.90;99.90
6421;DHT22;3243;50.958;7.012;2023-02-15T03:30:54;1.90;99.90
6421;DHT22;3243;50.958;7.012;2023-02-15T03:33:23;1.90;99.90
6421;DHT22;3243;50.958;7.012;2023-02-15T03:36:01;1.90;99.90
6421;DHT22;3243;50.958;7.012;2023-02-15T03:38:36;1.90;99.90
6421;DHT22;3243;50.958;7.012;2023-02-15T03:41:06;1.90;99.90
6421;DHT22;3243;50.958;7.012;2023-02-15T03:43:53;1.90;99.90
6421;DHT22;3243;50.958;7.012;2023-02-15T03:49:12;1.90;99.90
6421;DHT22;3243;50.958;7.012;2023-02-15T03:51:42;1.80;99.90
6421;DHT22;3243;50.958;7.012;2023-02-15T03:54:18;1.80;99.90
6421;DHT22;3243;50.958;7.012;2023-02-15T03:57:07;1.80;99.90
6421;DHT22;3243;50.958;7.012;2023-02-15T03:59:54;1.80;99.90
6421;DHT22;3243;50.958;7.012;2023-02-15T04:05:20;1.70;99.90
6421;DHT22;3243;50.958;7.012;2023-02-15T04:07:47;1.70;99.90
6421;DHT22;3243;50.958;7.012;2023-02-15T04:10:14;1.70;99.90
6421;DHT22;3243;50.958;7.012;2023-02-15T04:12:59;1.70;99.90
6421;DHT22;3243;50.958;7.012;2023-02-15T04:15:26;1.70;99.90
6421;DHT22;3243;50.958;7.012;2023-02-15T04:18:11;1.60;99.90
6421;DHT22;3243;50.958;7.012;2023-02-15T04:20:37;1.60;99.90
6421;DHT22;3243;50.958;7.012;2023-02-15T04:23:23;1.70;99.90
6421;DHT22;3243;50.958;7.012;2023-02-15T04:26:08;1.60;99.90
6421;DHT22;3243;50.958;7.012;2023-02-15T04:28:35;1.50;99.90
6421;DHT22;3243;50.958;7.012;2023-02-15T04:31:02;1.60;99.90
6421;DHT22;3243;50.958;7.012;2023-02-15T04:33:28;1.60;99.90
6421;DHT22;3243;50.958;7.012;2023-02-15T04:35:55;1.60;99.90
6421;DHT22;3243;50.958;7.012;2023-02-15T04:38:23;1.60;99.90
6421;DHT22;3243;50.958;7.012;2023-02-15T04:40:51;1.50;99.90
6421;DHT22;3243;50.958;7.012;2023-02-15T04:43:19;1.50;99.90
6421;DHT22;3243;50.958;7.012;2023-02-15T04:45:49;1.50;99.90
6421;DHT22;3243;50.958;7.012;2023-02-15T04:48:17;1.50;99.90
6421;DHT22;3243;50.958;7.012;2023-02-15T04:50:44;1.50;99.90
6421;DHT22;3243;50.958;7.012;2023-02-15T04:53:11;1.50;99.90
6421;DHT22;3243;50.958;7.012;2023-02-15T04:55:38;1.50;99.90
6421;DHT22;3243;50.958;7.012;2023-02-15T04:58:05;1.50;99.90
6421;DHT22;3243;50.958;7.012;2023-02-15T05:00:31;1.50;99.90
6421;DHT22;3243;50.958;7.012;2023-02-15T05:02:58;1.50;99.90
6421;DHT22;3243;50.958;7.012;2023-02-15T05:05:25;1.50;99.90
6421;DHT22;3243;50.958;7.012;2023-02-15T05:07:52;1.50;99.90
6421;DHT22;3243;50.958;7.012;2023-02-15T05:10:19;1.40;99.90
6421;DHT22;3243;50.958;7.012;2023-02-15T05:12:46;1.40;99.90
6421;DHT22;3243;50.958;7.012;2023-02-15T05:15:12;1.50;99.90
6421;DHT22;3243;50.958;7.012;2023-02-15T05:17:39;1.50;99.90
6421;DHT22;3243;50.958;7.012;2023-02-15T05:20:07;1.40;99.90
6421;DHT22;3243;50.958;7.012;2023-02-15T05:22:34;1.40;99.90
6421;DHT22;3243;50.958;7.012;2023-02-15T05:25:00;1.40;99.90
6421;DHT22;3243;50.958;7.012;2023-02-15T05:27:46;1.40;99.90
6421;DHT22;3243;50.958;7.012;2023-02-15T05:30:31;1.40;99.90
6421;DHT22;3243;50.958;7.012;2023-02-15T05:32:58;1.40;99.90
6421;DHT22;3243;50.958;7.012;2023-02-15T05:35:25;1.40;99.90
6421;DHT22;3243;50.958;7.012;2023-02-15T05:37:52;1.40;99.90
6421;DHT22;3243;50.958;7.012;2023-02-15T05:40:19;1.40;99.90
6421;DHT22;3243;50.958;7.012;2023-02-15T05:42:45;1.40;99.90
6421;DHT22;3243;50.958;7.012;2023-02-15T05:45:12;1.40;99.90
6421;DHT22;3243;50.958;7.012;2023-02-15T05:47:39;1.40;99.90
6421;DHT22;3243;50.958;7.012;2023-02-15T05:50:06;1.40;99.90
6421;DHT22;3243;50.958;7.012;2023-02-15T05:52:33;1.30;99.90
6421;DHT22;3243;50.958;7.012;2023-02-15T05:55:00;1.40;99.90
6421;DHT22;3243;50.958;7.012;2023-02-15T05:57:27;1.40;99.90
6421;DHT22;3243;50.958;7.012;2023-02-15T05:59:53;1.30;99.90
6421;DHT22;3243;50.958;7.012;2023-02-15T06:02:20;1.40;99.90
6421;DHT22;3243;50.958;7.012;2023-02-15T06:04:47;1.30;99.90
6421;DHT22;3243;50.958;7.012;2023-02-15T06:07:13;1.30;99.90
6421;DHT22;3243;50.958;7.012;2023-02-15T06:09:40;1.30;99.90
6421;DHT22;3243;50.958;7.012;2023-02-15T06:12:07;1.30;99.90
6421;DHT22;3243;50.958;7.012;2023-02-15T06:14:34;1.30;99.90
6421;DHT22;3243;50.958;7.012;2023-02-15T06:17:00;1.20;99.90
6421;DHT22;3243;50.958;7.012;2023-02-15T06:19:27;1.30;99.90
6421;DHT22;3243;50.958;7.012;2023-02-15T06:21:54;1.20;99.90
6421;DHT22;3243;50.958;7.012;2023-02-15T06:24:20;1.30;99.90
6421;DHT22;3243;50.958;7.012;2023-02-15T06:26:47;1.30;99.90
6421;DHT22;3243;50.958;7.012;2023-02-15T06:29:14;1.30;99.90
6421;DHT22;3243;50.958;7.012;2023-02-15T06:31:41;1.30;99.90
6421;DHT22;3243;50.958;7.012;2023-02-15T06:34:08;1.30;99.90
6421;DHT22;3243;50.958;7.012;2023-02-15T06:36:34;-1.50;99.90
6421;DHT22;3243;50.958;7.012;2023-02-15T06:39:02;1.20;99.90
6421;DHT22;3243;50.958;7.012;2023-02-15T06:41:29;1.20;99.90
6421;DHT22;3243;50.958;7.012;2023-02-15T06:43:56;1.20;99.90
6421;DHT22;3243;50.958;7.012;2023-02-15T06:46:23;1.20;99.90
6421;DHT22;3243;50.958;7.012;2023-02-15T06:48:50;1.20;99.90
6421;DHT22;3243;50.958;7.012;2023-02-15T06:51:16;1.20;99.90
6421;DHT22;3243;50.958;7.012;2023-02-15T06:53:43;1.20;99.90
6421;DHT22;3243;50.958;7.012;2023-02-15T06:56:10;1.20;99.90
6421;DHT22;3243;50.958;7.012;2023-02-15T06:58:41;1.20;99.90
6421;DHT22;3243;50.958;7.012;2023-02-15T07:01:09;1.20;99.90
6421;DHT22;3243;50.958;7.012;2023-02-15T07:03:35;1.20;99.90
6421;DHT22;3243;50.958;7.012;2023-02-15T07:06:03;1.20;99.90
6421;DHT22;3243;50.958;7.012;2023-02-15T07:08:32;1.20;99.90
6421;DHT22;3243;50.958;7.012;2023-02-15T07:10:59;1.30;99.90
6421;DHT22;3243;50.958;7.012;2023-02-15T07:13:46;1.30;99.90
6421;DHT22;3243;50.958;7.012;2023-02-15T07:16:13;1.30;99.90
6421;DHT22;3243;50.958;7.012;2023-02-15T07:18:40;1.30;99.90
6421;DHT22;3243;50.958;7.012;2023-02-15T07:21:07;1.40;99.90
6421;DHT22;3243;50.958;7.012;2023-02-15T07:23:38;1.40;99.90
6421;DHT22;3243;50.958;7.012;2023-02-15T07:26:06;1.30;99.90
6421;DHT22;3243;50.958;7.012;2023-02-15T07:28:34;1.40;99.90
6421;DHT22;3243;50.958;7.012;2023-02-15T07:31:02;1.40;99.90
6421;DHT22;3243;50.958;7.012;2023-02-15T07:33:33;1.50;99.90
6421;DHT22;3243;50.958;7.012;2023-02-15T07:36:02;1.50;99.90
6421;DHT22;3243;50.958;7.012;2023-02-15T07:38:31;1.50;99.90
6421;DHT22;3243;50.958;7.012;2023-02-15T07:41:00;1.60;99.90
6421;DHT22;3243;50.958;7.012;2023-02-15T07:43:28;1.60;99.90
6421;DHT22;3243;50.958;7.012;2023-02-15T07:46:16;1.70;99.90
6421;DHT22;3243;50.958;7.012;2023-02-15T07:48:43;1.70;99.90
6421;DHT22;3243;50.958;7.012;2023-02-15T07:51:12;1.70;99.90
6421;DHT22;3243;50.958;7.012;2023-02-15T07:53:39;1.80;99.90
6421;DHT22;3243;50.958;7.012;2023-02-15T07:56:09;1.80;99.90
6421;DHT22;3243;50.958;7.012;2023-02-15T07:58:36;1.90;99.90
6421;DHT22;3243;50.958;7.012;2023-02-15T08:03:45;2.00;99.90
6421;DHT22;3243;50.958;7.012;2023-02-15T08:06:12;2.10;99.90
6421;DHT22;3243;50.958;7.012;2023-02-15T08:08:40;2.10;99.90
6421;DHT22;3243;50.958;7.012;2023-02-15T08:14:01;2.20;99.90
6421;DHT22;3243;50.958;7.012;2023-02-15T08:19:06;2.30;99.90
6421;DHT22;3243;50.958;7.012;2023-02-15T08:21:34;2.40;99.90
6421;DHT22;3243;50.958;7.012;2023-02-15T08:24:02;2.50;99.90
6421;DHT22;3243;50.958;7.012;2023-02-15T08:26:30;2.50;99.90
6421;DHT22;3243;50.958;7.012;2023-02-15T08:28:58;2.60;99.90
6421;DHT22;3243;50.958;7.012;2023-02-15T08:31:25;2.70;99.90
6421;DHT22;3243;50.958;7.012;2023-02-15T08:33:54;2.80;99.90
6421;DHT22;3243;50.958;7.012;2023-02-15T08:36:24;2.80;99.90
6421;DHT22;3243;50.958;7.012;2023-02-15T08:38:51;3.00;99.90
6421;DHT22;3243;50.958;7.012;2023-02-15T08:41:29;3.00;99.90
6421;DHT22;3243;50.958;7.012;2023-02-15T08:43:59;3.00;99.90
6421;DHT22;3243;50.958;7.012;2023-02-15T08:46:28;3.10;99.90
6421;DHT22;3243;50.958;7.012;2023-02-15T08:48:55;3.10;99.90
6421;DHT22;3243;50.958;7.012;2023-02-15T08:51:25;3.30;99.90
6421;DHT22;3243;50.958;7.012;2023-02-15T08:53:54;3.40;99.90
6421;DHT22;3243;50.958;7.012;2023-02-15T08:56:26;3.50;99.90
6421;DHT22;3243;50.958;7.012;2023-02-15T08:58:54;3.50;99.90
6421;DHT22;3243;50.958;7.012;2023-02-15T09:01:27;3.60;99.90
6421;DHT22;3243;50.958;7.012;2023-02-15T09:04:02;3.70;99.90
6421;DHT22;3243;50.958;7.012;2023-02-15T09:06:31;3.80;99.90
6421;DHT22;3243;50.958;7.012;2023-02-15T09:08:58;3.90;99.90
6421;DHT22;3243;50.958;7.012;2023-02-15T09:11:27;4.00;99.90
6421;DHT22;3243;50.958;7.012;2023-02-15T09:13:59;4.00;99.90
6421;DHT22;3243;50.958;7.012;2023-02-15T09:16:29;4.10;99.90
6421;DHT22;3243;50.958;7.012;2023-02-15T09:18:56;4.20;99.90
6421;DHT22;3243;50.958;7.012;2023-02-15T09:21:28;4.30;1.00
6421;DHT22;3243;50.958;7.012;2023-02-15T09:24:00;4.40;1.00
6421;DHT22;3243;50.958;7.012;2023-02-15T09:26:29;4.60;1.00
6421;DHT22;3243;50.958;7.012;2023-02-15T09:28:59;4.60;1.00
6421;DHT22;3243;50.958;7.012;2023-02-15T09:31:29;4.70;1.00
6421;DHT22;3243;50.958;7.012;2023-02-15T09:33:59;4.80;99.90
6421;DHT22;3243;50.958;7.012;2023-02-15T09:36:33;4.90;99.90
6421;DHT22;3243;50.958;7.012;2023-02-15T09:39:15;5.00;99.90
6421;DHT22;3243;50.958;7.012;2023-02-15T09:56:18;5.60;99.90
6421;DHT22;3243;50.958;7.012;2023-02-15T09:58:50;5.80;99.90
6421;DHT22;3243;50.958;7.012;2023-02-15T10:12:48;6.10;99.90
6421;DHT22;3243;50.958;7.012;2023-02-15T10:24:04;6.50;99.90
6421;DHT22;3243;50.958;7.012;2023-02-15T10:26:46;6.60;99.90
6421;DHT22;3243;50.958;7.012;2023-02-15T10:29:27;6.70;99.90
6421;DHT22;3243;50.958;7.012;2023-02-15T10:34:47;6.90;99.90
6421;DHT22;3243;50.958;7.012;2023-02-15T10:37:42;7.00;99.90
6421;DHT22;3243;50.958;7.012;2023-02-15T10:50:50;7.50;99.90
6421;DHT22;3243;50.958;7.012;2023-02-15T10:56:20;7.70;96.00
6421;DHT22;3243;50.958;7.012;2023-02-15T11:06:48;8.10;75.00
6421;DHT22;3243;50.958;7.012;2023-02-15T11:09:19;8.10;72.80
6421;DHT22;3243;50.958;7.012;2023-02-15T11:11:53;8.10;67.30
6421;DHT22;3243;50.958;7.012;2023-02-15T11:14:46;8.20;69.70
6421;DHT22;3243;50.958;7.012;2023-02-15T11:17:24;8.30;68.00
6421;DHT22;3243;50.958;7.012;2023-02-15T11:20:19;8.40;67.60
6421;DHT22;3243;50.958;7.012;2023-02-15T11:22:49;8.50;51.80
6421;DHT22;3243;50.958;7.012;2023-02-15T11:25:32;8.60;53.80
6421;DHT22;3243;50.958;7.012;2023-02-15T11:28:03;8.70;47.60
6421;DHT22;3243;50.958;7.012;2023-02-15T11:30:57;8.80;48.20
6421;DHT22;3243;50.958;7.012;2023-02-15T11:33:31;8.90;35.70
6421;DHT22;3243;50.958;7.012;2023-02-15T11:36:15;8.90;36.00
6421;DHT22;3243;50.958;7.012;2023-02-15T11:38:46;9.10;35.90
6421;DHT22;3243;50.958;7.012;2023-02-15T11:41:18;9.20;32.20
6421;DHT22;3243;50.958;7.012;2023-02-15T11:44:10;9.30;32.10
6421;DHT22;3243;50.958;7.012;2023-02-15T11:46:38;9.20;23.50
6421;DHT22;3243;50.958;7.012;2023-02-15T11:49:41;9.30;20.00
6421;DHT22;3243;50.958;7.012;2023-02-15T11:52:12;9.40;18.60
6421;DHT22;3243;50.958;7.012;2023-02-15T11:54:45;9.40;18.60
6421;DHT22;3243;50.958;7.012;2023-02-15T11:57:23;9.50;21.00
6421;DHT22;3243;50.958;7.012;2023-02-15T11:59:58;9.50;59.10
6421;DHT22;3243;50.958;7.012;2023-02-15T12:05:03;9.70;92.60
6421;DHT22;3243;50.958;7.012;2023-02-15T12:07:46;9.80;68.30
6421;DHT22;3243;50.958;7.012;2023-02-15T12:10:26;9.90;1.00
6421;DHT22;3243;50.958;7.012;2023-02-15T12:13:20;10.00;74.10
6421;DHT22;3243;50.958;7.012;2023-02-15T12:15:50;10.10;99.90
6421;DHT22;3243;50.958;7.012;2023-02-15T12:21:15;10.20;42.70
6421;DHT22;3243;50.958;7.012;2023-02-15T12:23:54;10.30;30.10
6421;DHT22;3243;50.958;7.012;2023-02-15T12:28:53;10.50;74.50
6421;DHT22;3243;50.958;7.012;2023-02-15T12:31:36;10.40;51.50
6421;DHT22;3243;50.958;7.012;2023-02-15T12:34:10;10.50;99.90
6421;DHT22;3243;50.958;7.012;2023-02-15T12:36:44;10.60;99.90
6421;DHT22;3243;50.958;7.012;2023-02-15T12:44:35;10.80;1.00
6421;DHT22;3243;50.958;7.012;2023-02-15T12:49:35;10.90;99.90
6421;DHT22;3243;50.958;7.012;2023-02-15T12:52:24;10.90;1.00
6421;DHT22;3243;50.958;7.012;2023-02-15T12:54:51;10.90;99.90
6421;DHT22;3243;50.958;7.012;2023-02-15T12:57:25;11.00;99.90
6421;DHT22;3243;50.958;7.012;2023-02-15T13:02:27;11.00;99.90
6421;DHT22;3243;50.958;7.012;2023-02-15T13:04:55;11.10;99.90
6421;DHT22;3243;50.958;7.012;2023-02-15T13:07:28;11.20;99.90
6421;DHT22;3243;50.958;7.012;2023-02-15T13:09:57;11.20;99.90
6421;DHT22;3243;50.958;7.012;2023-02-15T13:12:27;11.20;1.00
6421;DHT22;3243;50.958;7.012;2023-02-15T13:14:55;11.30;1.00
6421;DHT22;3243;50.958;7.012;2023-02-15T13:17:28;11.30;99.90
6421;DHT22;3243;50.958;7.012;2023-02-15T13:20:05;11.30;1.00
6421;DHT22;3243;50.958;7.012;2023-02-15T13:22:41;11.40;99.90
6421;DHT22;3243;50.958;7.012;2023-02-15T13:25:19;11.40;1.00
6421;DHT22;3243;50.958;7.012;2023-02-15T13:27:52;11.40;99.90
6421;DHT22;3243;50.958;7.012;2023-02-15T13:30:28;11.50;37.40
6421;DHT22;3243;50.958;7.012;2023-02-15T13:33:24;11.50;99.90
6421;DHT22;3243;50.958;7.012;2023-02-15T13:41:17;11.60;48.40
6421;DHT22;3243;50.958;7.012;2023-02-15T13:49:46;11.80;19.90
6421;DHT22;3243;50.958;7.012;2023-02-15T13:52:25;11.80;99.90
6421;DHT22;3243;50.958;7.012;2023-02-15T14:01:09;11.90;39.80
6421;DHT22;3243;50.958;7.012;2023-02-15T14:15:29;11.90;56.60
6421;DHT22;3243;50.958;7.012;2023-02-15T14:20:47;12.00;92.80
6421;DHT22;3243;50.958;7.012;2023-02-15T14:26:14;11.90;99.90
6421;DHT22;3243;50.958;7.012;2023-02-15T14:31:39;11.90;27.50
6421;DHT22;3243;50.958;7.012;2023-02-15T14:34:22;11.70;19.00
6421;DHT22;3243;50.958;7.012;2023-02-15T14:36:51;11.70;32.30
6421;DHT22;3243;50.958;7.012;2023-02-15T14:45:18;11.60;30.50
6421;DHT22;3243;50.958;7.012;2023-02-15T14:47:55;11.60;67.60
6421;DHT22;3243;50.958;7.012;2023-02-15T14:58:13;11.60;99.90
6421;DHT22;3243;50.958;7.012;2023-02-15T15:00:41;11.60;99.90
6421;DHT22;3243;50.958;7.012;2023-02-15T15:03:20;11.60;99.90
6421;DHT22;3243;50.958;7.012;2023-02-15T15:05:52;11.60;98.10
6421;DHT22;3243;50.958;7.012;2023-02-15T15:10:54;11.50;82.80
6421;DHT22;3243;50.958;7.012;2023-02-15T15:18:57;11.40;51.10
6421;DHT22;3243;50.958;7.012;2023-02-15T15:27:43;11.30;99.90
6421;DHT22;3243;50.958;7.012;2023-02-15T15:35:34;11.30;99.90
6421;DHT22;3243;50.958;7.012;2023-02-15T15:49:12;10.90;99.90
6421;DHT22;3243;50.958;7.012;2023-02-15T15:51:42;10.90;99.90
6421;DHT22;3243;50.958;7.012;2023-02-15T15:54:16;10.80;99.90
6421;DHT22;3243;50.958;7.012;2023-02-15T15:56:51;10.70;99.90
6421;DHT22;3243;50.958;7.012;2023-02-15T15:59:25;10.70;99.90
6421;DHT22;3243;50.958;7.012;2023-02-15T16:01:52;10.60;1.00
6421;DHT22;3243;50.958;7.012;2023-02-15T16:04:33;10.60;99.90
6421;DHT22;3243;50.958;7.012;2023-02-15T16:07:20;10.50;1.00
6421;DHT22;3243;50.958;7.012;2023-02-15T16:09:59;10.40;99.90
6421;DHT22;3243;50.958;7.012;2023-02-15T16:12:37;10.30;99.90
6421;DHT22;3243;50.958;7.012;2023-02-15T16:17:45;10.10;99.90
6421;DHT22;3243;50.958;7.012;2023-02-15T16:20:17;10.00;1.00
6421;DHT22;3243;50.958;7.012;2023-02-15T16:22:55;10.00;99.90
6421;DHT22;3243;50.958;7.012;2023-02-15T16:25:52;9.90;1.00
6421;DHT22;3243;50.958;7.012;2023-02-15T16:31:12;9.70;99.90
6421;DHT22;3243;50.958;7.012;2023-02-15T16:33:41;9.60;99.90
6421;DHT22;3243;50.958;7.012;2023-02-15T16:36:27;9.50;99.90
6421;DHT22;3243;50.958;7.012;2023-02-15T16:43:50;9.20;99.90
6421;DHT22;3243;50.958;7.012;2023-02-15T16:48:55;9.00;99.90
6421;DHT22;3243;50.958;7.012;2023-02-15T16:51:25;8.90;99.90
6421;DHT22;3243;50.958;7.012;2023-02-15T16:53:55;8.80;99.90
6421;DHT22;3243;50.958;7.012;2023-02-15T16:56:24;8.80;99.90
6421;DHT22;3243;50.958;7.012;2023-02-15T16:58:54;8.70;99.90
6421;DHT22;3243;50.958;7.012;2023-02-15T17:01:25;8.70;99.90
6421;DHT22;3243;50.958;7.012;2023-02-15T17:04:12;8.70;99.90
6421;DHT22;3243;50.958;7.012;2023-02-15T17:06:40;8.60;99.90
6421;DHT22;3243;50.958;7.012;2023-02-15T17:09:16;8.60;99.90
6421;DHT22;3243;50.958;7.012;2023-02-15T17:14:19;8.50;99.90
6421;DHT22;3243;50.958;7.012;2023-02-15T17:16:58;8.60;99.90
6421;DHT22;3243;50.958;7.012;2023-02-15T17:19:28;8.50;1.00
6421;DHT22;3243;50.958;7.012;2023-02-15T17:22:01;8.60;1.00
6421;DHT22;3243;50.958;7.012;2023-02-15T17:27:15;8.50;99.90
6421;DHT22;3243;50.958;7.012;2023-02-15T17:29:49;8.50;1.00
6421;DHT22;3243;50.958;7.012;2023-02-15T17:32:24;8.50;99.90
6421;DHT22;3243;50.958;7.012;2023-02-15T17:42:21;8.40;99.70
6421;DHT22;3243;50.958;7.012;2023-02-15T17:44:48;8.30;1.00
6421;DHT22;3243;50.958;7.012;2023-02-15T17:47:20;8.20;48.20
6421;DHT22;3243;50.958;7.012;2023-02-15T17:49:48;8.10;99.90
6421;DHT22;3243;50.958;7.012;2023-02-15T18:02:44;7.90;99.90
6421;DHT22;3243;50.958;7.012;2023-02-15T18:05:30;7.90;55.20
6421;DHT22;3243;50.958;7.012;2023-02-15T18:08:17;8.00;99.90
6421;DHT22;3243;50.958;7.012;2023-02-15T18:13:49;8.00;99.90
6421;DHT22;3243;50.958;7.012;2023-02-15T18:16:22;7.90;1.00
6421;DHT22;3243;50.958;7.012;2023-02-15T18:21:17;7.90;99.90
6421;DHT22;3243;50.958;7.012;2023-02-15T18:26:22;7.90;99.90
6421;DHT22;3243;50.958;7.012;2023-02-15T18:28:49;7.90;99.90
6421;DHT22;3243;50.958;7.012;2023-02-15T18:31:17;7.70;99.90
6421;DHT22;3243;50.958;7.012;2023-02-15T18:33:47;7.80;99.90
6421;DHT22;3243;50.958;7.012;2023-02-15T18:36:29;7.70;99.90
6421;DHT22;3243;50.958;7.012;2023-02-15T18:38:59;7.70;99.90
6421;DHT22;3243;50.958;7.012;2023-02-15T18:41:32;7.60;99.90
6421;DHT22;3243;50.958;7.012;2023-02-15T18:46:26;7.60;99.90
6421;DHT22;3243;50.958;7.012;2023-02-15T18:48:53;7.60;99.90
6421;DHT22;3243;50.958;7.012;2023-02-15T18:51:21;7.50;1.00
6421;DHT22;3243;50.958;7.012;2023-02-15T18:53:50;7.50;1.00
6421;DHT22;3243;50.958;7.012;2023-02-15T18:56:20;7.50;1.00
6421;DHT22;3243;50.958;7.012;2023-02-15T19:01:19;7.50;1.00
6421;DHT22;3243;50.958;7.012;2023-02-15T19:03:48;7.50;1.00
6421;DHT22;3243;50.958;7.012;2023-02-15T19:06:18;7.40;1.00
6421;DHT22;3243;50.958;7.012;2023-02-15T19:08:47;7.40;4.90
6421;DHT22;3243;50.958;7.012;2023-02-15T19:11:20;7.30;99.90
6421;DHT22;3243;50.958;7.012;2023-02-15T19:13:50;7.20;99.90
6421;DHT22;3243;50.958;7.012;2023-02-15T19:16:34;7.30;99.90
6421;DHT22;3243;50.958;7.012;2023-02-15T19:19:01;7.30;99.90
6421;DHT22;3243;50.958;7.012;2023-02-15T19:21:29;7.20;1.00
6421;DHT22;3243;50.958;7.012;2023-02-15T19:24:06;7.10;99.90
6421;DHT22;3243;50.958;7.012;2023-02-15T19:26:37;7.10;1.00
6421;DHT22;3243;50.958;7.012;2023-02-15T19:29:13;7.00;1.00
6421;DHT22;3243;50.958;7.012;2023-02-15T19:31:40;7.00;1.00
6421;DHT22;3243;50.958;7.012;2023-02-15T19:34:15;7.00;99.90
6421;DHT22;3243;50.958;7.012;2023-02-15T19:36:44;7.00;94.50
6421;DHT22;3243;50.958;7.012;2023-02-15T19:41:50;6.90;99.90
6421;DHT22;3243;50.958;7.012;2023-02-15T19:46:44;6.90;99.90
6421;DHT22;3243;50.958;7.012;2023-02-15T19:51:39;6.90;1.00
6421;DHT22;3243;50.958;7.012;2023-02-15T19:54:32;6.90;1.00
6421;DHT22;3243;50.958;7.012;2023-02-15T19:57:00;6.90;99.90
6421;DHT22;3243;50.958;7.012;2023-02-15T20:04:22;6.80;1.00
6421;DHT22;3243;50.958;7.012;2023-02-15T20:06:50;6.80;1.00
6421;DHT22;3243;50.958;7.012;2023-02-15T20:09:23;6.80;1.00
6421;DHT22;3243;50.958;7.012;2023-02-15T20:11:54;6.70;1.00
6421;DHT22;3243;50.958;7.012;2023-02-15T20:14:21;6.70;99.90
6421;DHT22;3243;50.958;7.012;2023-02-15T20:21:44;6.60;1.00
6421;DHT22;3243;50.958;7.012;2023-02-15T20:24:16;6.40;1.00
6421;DHT22;3243;50.958;7.012;2023-02-15T20:29:16;6.50;1.00
6421;DHT22;3243;50.958;7.012;2023-02-15T20:31:44;6.50;99.90
6421;DHT22;3243;50.958;7.012;2023-02-15T20:34:11;6.50;99.90
6421;DHT22;3243;50.958;7.012;2023-02-15T20:36:38;6.40;99.90
6421;DHT22;3243;50.958;7.012;2023-02-15T20:39:14;6.40;99.90
6421;DHT22;3243;50.958;7.012;2023-02-15T20:41:41;6.30;1.00
6421;DHT22;3243;50.958;7.012;2023-02-15T20:44:27;6.30;99.90
6421;DHT22;3243;50.958;7.012;2023-02-15T20:46:57;6.40;99.90
6421;DHT22;3243;50.958;7.012;2023-02-15T20:49:25;6.30;17.40
6421;DHT22;3243;50.958;7.012;2023-02-15T20:51:54;5.50;99.90
6421;DHT22;3243;50.958;7.012;2023-02-15T20:54:26;6.20;1.00
6421;DHT22;3243;50.958;7.012;2023-02-15T20:59:23;6.10;1.00
6421;DHT22;3243;50.958;7.012;2023-02-15T21:01:53;6.10;99.90
6421;DHT22;3243;50.958;7.012;2023-02-15T21:04:31;6.10;1.00
6421;DHT22;3243;50.958;7.012;2023-02-15T21:06:59;6.10;1.00
6421;DHT22;3243;50.958;7.012;2023-02-15T21:11:54;6.00;99.90
6421;DHT22;3243;50.958;7.012;2023-02-15T21:14:23;6.00;99.90
6421;DHT22;3243;50.958;7.012;2023-02-15T21:16:51;6.00;99.90
6421;DHT22;3243;50.958;7.012;2023-02-15T21:19:23;5.90;99.90
6421;DHT22;3243;50.958;7.012;2023-02-15T21:21:51;5.90;99.90
6421;DHT22;3243;50.958;7.012;2023-02-15T21:24:22;5.80;99.90
6421;DHT22;3243;50.958;7.012;2023-02-15T21:26:49;5.80;99.90